createdAt,value
2023-02-14T00:01:31.528Z,66.18
2023-02-14T00:04:00.926Z,66.09
2023-02-14T00:06:35.020Z,66.14
2023-02-14T00:09:03.396Z,66.23
2023-02-14T00:11:31.894Z,66.11
2023-02-14T00:14:18.362Z,66.28
2023-02-14T00:16:46.252Z,66.37
2023-02-14T00:19:16.270Z,66.50
2023-02-14T00:21:44.808Z,66.42
2023-02-14T00:24:14.962Z,66.43
2023-02-14T00:26:42.826Z,66.37
2023-02-14T00:29:15.170Z,66.40
2023-02-14T00:31:44.925Z,66.46
2023-02-14T00:34:14.474Z,66.40
2023-02-14T00:36:43.108Z,66.30
2023-02-14T00:39:14.563Z,66.26
2023-02-14T00:41:43.096Z,66.27
2023-02-14T00:44:13.305Z,66.24
2023-02-14T00:46:41.672Z,66.14
2023-02-14T00:49:09.871Z,66.15
2023-02-14T00:51:40.721Z,66.33
2023-02-14T00:54:08.536Z,66.44
2023-02-14T00:56:36.226Z,66.50
2023-02-14T00:59:03.945Z,66.58
2023-02-14T01:01:31.799Z,66.40
2023-02-14T01:03:59.556Z,66.44
2023-02-14T01:06:27.385Z,66.46
2023-02-14T01:08:57.680Z,66.37
2023-02-14T01:11:25.827Z,66.43
2023-02-14T01:13:56.765Z,66.49
2023-02-14T01:16:27.019Z,66.58
2023-02-14T01:18:59.797Z,66.37
2023-02-14T01:21:31.710Z,66.40
2023-02-14T01:24:05.702Z,66.34
2023-02-14T01:26:35.014Z,66.44
2023-02-14T01:29:04.508Z,66.50
2023-02-14T01:31:35.126Z,66.39
2023-02-14T01:34:04.112Z,66.46
2023-02-14T01:36:37.115Z,66.54
2023-02-14T01:39:12.920Z,66.57
2023-02-14T01:41:44.071Z,66.71
2023-02-14T01:44:14.949Z,66.66
2023-02-14T01:46:45.036Z,66.55
2023-02-14T01:49:34.932Z,66.56
2023-02-14T01:52:27.327Z,66.68
2023-02-14T01:55:00.277Z,66.81
2023-02-14T01:57:43.242Z,66.99
2023-02-14T02:00:32.618Z,67.05
2023-02-14T02:03:01.869Z,67.04
2023-02-14T02:05:29.882Z,67.06
2023-02-14T02:08:00.133Z,67.02
2023-02-14T02:10:29.385Z,66.87
2023-02-14T02:13:03.121Z,66.93
2023-02-14T02:15:39.468Z,66.96
2023-02-14T02:18:30.798Z,66.93
2023-02-14T02:21:43.344Z,66.83
2023-02-14T02:24:25.879Z,66.97
2023-02-14T02:27:03.719Z,67.02
2023-02-14T02:30:15.044Z,67.14
2023-02-14T02:33:33.167Z,67.14
2023-02-14T02:36:25.322Z,67.32
2023-02-14T02:39:41.349Z,67.19
2023-02-14T02:42:28.448Z,67.13
2023-02-14T02:45:32.436Z,67.28
2023-02-14T02:48:32.216Z,67.23
2023-02-14T02:51:25.247Z,67.31
2023-02-14T02:54:20.185Z,67.35
2023-02-14T02:56:58.185Z,67.48
2023-02-14T02:59:34.260Z,67.43
2023-02-14T03:03:05.066Z,67.34
2023-02-14T03:05:34.457Z,67.55
2023-02-14T03:08:04.669Z,67.59
2023-02-14T03:10:38.761Z,67.74
2023-02-14T03:13:33.648Z,67.63
2023-02-14T03:16:26.683Z,67.57
2023-02-14T03:19:35.441Z,67.66
2023-02-14T03:22:15.608Z,67.91
2023-02-14T03:25:10.908Z,68.00
2023-02-14T03:27:48.380Z,68.07
2023-02-14T03:31:10.029Z,68.08
2023-02-14T03:33:52.628Z,68.12
2023-02-14T03:36:41.910Z,68.16
2023-02-14T03:39:26.697Z,68.17
2023-02-14T03:42:09.285Z,68.19
2023-02-14T03:44:40.147Z,68.13
2023-02-14T03:47:16.930Z,68.18
2023-02-14T03:49:53.121Z,68.25
2023-02-14T03:52:22.428Z,68.40
2023-02-14T03:54:54.449Z,68.34
2023-02-14T03:58:02.353Z,68.31
2023-02-14T04:00:35.397Z,68.52
2023-02-14T04:03:13.095Z,68.61
2023-02-14T04:05:43.328Z,68.53
2023-02-14T04:08:11.857Z,68.48
2023-02-14T04:10:41.349Z,68.59
2023-02-14T04:13:09.258Z,68.51
2023-02-14T04:15:37.047Z,68.58
2023-02-14T04:18:23.498Z,68.58
2023-02-14T04:20:51.267Z,68.64
2023-02-14T04:23:19.019Z,68.74
2023-02-14T04:25:47.386Z,68.57
2023-02-14T04:28:15.248Z,68.71
2023-02-14T04:30:43.218Z,68.65
2023-02-14T04:33:10.933Z,68.77
2023-02-14T04:35:38.716Z,68.80
2023-02-14T04:38:06.585Z,68.91
2023-02-14T04:40:34.297Z,68.88
2023-02-14T04:43:03.926Z,68.89
2023-02-14T04:45:31.717Z,68.88
2023-02-14T04:47:59.869Z,68.98
2023-02-14T04:50:27.576Z,69.10
2023-02-14T04:52:55.454Z,68.94
2023-02-14T04:55:23.456Z,68.89
2023-02-14T04:57:51.221Z,68.89
2023-02-14T05:00:19.558Z,69.04
2023-02-14T05:02:47.280Z,69.12
2023-02-14T05:05:15.166Z,69.06
2023-02-14T05:07:47.052Z,69.13
2023-02-14T05:10:14.949Z,69.15
2023-02-14T05:12:42.814Z,69.08
2023-02-14T05:15:10.658Z,69.06
2023-02-14T05:17:38.496Z,69.12
2023-02-14T05:20:09.426Z,69.15
2023-02-14T05:22:37.077Z,68.98
2023-02-14T05:25:05.374Z,68.92
2023-02-14T05:27:33.228Z,69.06
2023-02-14T05:30:01.013Z,68.97
2023-02-14T05:32:28.775Z,69.09
2023-02-14T05:34:56.469Z,69.04
2023-02-14T05:37:24.205Z,69.00
2023-02-14T05:39:51.902Z,69.14
2023-02-14T05:42:19.811Z,69.18
2023-02-14T05:44:48.267Z,69.14
2023-02-14T05:47:16.008Z,68.98
2023-02-14T05:49:43.685Z,68.93
2023-02-14T05:52:11.434Z,68.86
2023-02-14T05:54:39.047Z,68.78
2023-02-14T05:57:06.981Z,68.94
2023-02-14T05:59:34.712Z,68.96
2023-02-14T06:02:02.629Z,69.03
2023-02-14T06:04:30.546Z,68.87
2023-02-14T06:06:58.577Z,68.88
2023-02-14T06:09:26.667Z,68.81
2023-02-14T06:11:55.322Z,68.88
2023-02-14T06:14:23.316Z,68.98
2023-02-14T06:16:51.463Z,68.90
2023-02-14T06:19:19.128Z,68.71
2023-02-14T06:21:47.176Z,68.81
2023-02-14T06:24:14.814Z,68.91
2023-02-14T06:26:42.528Z,68.91
2023-02-14T06:29:10.708Z,68.90
2023-02-14T06:31:38.508Z,68.96
2023-02-14T06:34:06.622Z,69.05
2023-02-14T06:36:34.892Z,69.01
2023-02-14T06:39:03.835Z,69.04
2023-02-14T06:41:31.670Z,69.00
2023-02-14T06:43:59.671Z,69.04
2023-02-14T06:46:27.536Z,69.07
2023-02-14T06:48:55.277Z,68.99
2023-02-14T06:51:23.205Z,69.22
2023-02-14T06:53:51.025Z,69.13
2023-02-14T06:56:18.790Z,69.21
2023-02-14T06:58:46.692Z,69.14
2023-02-14T07:01:14.655Z,69.23
2023-02-14T07:03:42.645Z,69.23
2023-02-14T07:06:10.395Z,69.27
2023-02-14T07:08:38.073Z,69.20
2023-02-14T07:11:05.746Z,69.24
2023-02-14T07:13:33.497Z,69.11
2023-02-14T07:16:01.216Z,69.02
2023-02-14T07:18:28.928Z,68.98
2023-02-14T07:20:56.724Z,68.99
2023-02-14T07:23:24.442Z,68.89
2023-02-14T07:25:52.124Z,68.78
2023-02-14T07:28:19.835Z,68.96
2023-02-14T07:30:48.151Z,68.81
2023-02-14T07:33:16.326Z,68.52
2023-02-14T07:35:44.184Z,68.47
2023-02-14T07:38:11.837Z,68.59
2023-02-14T07:40:40.409Z,68.57
2023-02-14T07:43:08.224Z,68.45
2023-02-14T07:45:35.968Z,68.18
2023-02-14T07:48:04.126Z,68.06
2023-02-14T07:50:31.827Z,68.00
2023-02-14T07:52:59.423Z,67.97
2023-02-14T07:55:27.260Z,67.89
2023-02-14T07:57:54.939Z,67.92
2023-02-14T08:00:22.984Z,67.75
2023-02-14T08:02:50.733Z,67.61
2023-02-14T08:05:18.928Z,67.63
2023-02-14T08:07:46.781Z,67.41
2023-02-14T08:10:14.646Z,67.29
2023-02-14T08:13:00.856Z,67.28
2023-02-14T08:15:56.188Z,67.16
2023-02-14T08:18:23.993Z,66.88
2023-02-14T08:20:51.679Z,66.77
2023-02-14T08:23:21.026Z,66.77
2023-02-14T08:25:50.966Z,66.77
2023-02-14T08:28:21.126Z,66.58
2023-02-14T08:30:49.609Z,66.39
2023-02-14T08:33:18.104Z,66.23
2023-02-14T08:35:45.979Z,66.20
2023-02-14T08:38:13.920Z,66.17
2023-02-14T08:40:42.290Z,66.13
2023-02-14T08:43:10.822Z,65.76
2023-02-14T08:45:40.080Z,65.44
2023-02-14T08:48:11.341Z,65.05
2023-02-14T08:50:40.208Z,64.95
2023-02-14T08:53:10.775Z,64.72
2023-02-14T08:55:39.909Z,64.89
2023-02-14T08:58:07.685Z,64.99
2023-02-14T09:00:35.597Z,64.75
2023-02-14T09:03:03.829Z,64.33
2023-02-14T09:05:33.418Z,64.07
2023-02-14T09:08:02.799Z,63.91
2023-02-14T09:10:30.941Z,63.74
2023-02-14T09:12:58.646Z,63.71
2023-02-14T09:15:26.377Z,63.63
2023-02-14T09:17:54.098Z,63.33
2023-02-14T09:20:22.054Z,63.14
2023-02-14T09:22:50.078Z,63.14
2023-02-14T09:25:17.769Z,63.11
2023-02-14T09:27:45.504Z,63.18
2023-02-14T09:30:14.479Z,63.00
2023-02-14T09:32:42.284Z,62.68
2023-02-14T09:35:28.693Z,62.73
2023-02-14T09:38:15.363Z,62.79
2023-02-14T09:40:43.872Z,62.79
2023-02-14T09:43:33.367Z,62.79
2023-02-14T09:46:02.857Z,62.87
2023-02-14T09:48:43.152Z,63.03
2023-02-14T09:51:22.785Z,62.96
2023-02-14T09:54:13.705Z,62.43
2023-02-14T09:57:06.573Z,62.03
2023-02-14T10:00:25.697Z,62.06
2023-02-14T10:03:07.839Z,61.76
2023-02-14T10:05:47.043Z,61.97
2023-02-14T10:08:31.152Z,62.38
2023-02-14T10:11:10.284Z,62.63
2023-02-14T10:13:48.544Z,62.46
2023-02-14T10:16:33.087Z,62.43
2023-02-14T10:19:39.593Z,62.19
2023-02-14T10:22:20.925Z,62.18
2023-02-14T10:25:08.441Z,62.39
2023-02-14T10:27:41.648Z,62.46
2023-02-14T10:30:20.985Z,62.08
2023-02-14T10:33:27.991Z,62.03
2023-02-14T10:36:04.742Z,61.86
2023-02-14T10:38:47.272Z,61.59
2023-02-14T10:41:39.495Z,61.65
2023-02-14T10:44:51.983Z,61.41
2023-02-14T10:47:26.182Z,61.00
2023-02-14T10:50:20.879Z,60.87
2023-02-14T10:53:03.354Z,61.18
2023-02-14T10:55:56.353Z,61.08
2023-02-14T10:58:34.165Z,60.61
2023-02-14T11:01:12.887Z,60.40
2023-02-14T11:04:03.101Z,60.34
2023-02-14T11:06:30.946Z,60.21
2023-02-14T11:08:58.993Z,60.13
2023-02-14T11:11:31.432Z,60.13
2023-02-14T11:13:59.181Z,59.98
2023-02-14T11:16:33.395Z,59.90
2023-02-14T11:19:37.230Z,59.49
2023-02-14T11:22:05.865Z,59.90
2023-02-14T11:24:41.741Z,60.06
2023-02-14T11:32:54.560Z,60.26
2023-02-14T11:35:33.639Z,59.82
2023-02-14T11:38:05.778Z,59.37
2023-02-14T11:40:38.374Z,59.55
2023-02-14T11:43:37.473Z,59.51
2023-02-14T11:46:24.305Z,59.26
2023-02-14T11:49:06.164Z,59.08
2023-02-14T11:51:44.697Z,59.21
2023-02-14T11:54:31.645Z,59.23
2023-02-14T11:57:27.153Z,59.19
2023-02-14T11:59:57.650Z,59.14
2023-02-14T12:02:44.342Z,58.92
2023-02-14T12:05:21.176Z,58.97
2023-02-14T12:08:07.782Z,59.27
2023-02-14T12:10:38.077Z,59.43
2023-02-14T12:13:08.910Z,59.42
2023-02-14T12:15:52.021Z,59.35
2023-02-14T12:18:40.539Z,59.51
2023-02-14T12:21:47.723Z,59.24
2023-02-14T12:25:07.035Z,59.21
2023-02-14T12:27:49.938Z,59.40
2023-02-14T12:30:24.865Z,58.95
2023-02-14T12:32:56.778Z,58.82
2023-02-14T12:35:46.778Z,58.93
2023-02-14T12:38:32.605Z,58.78
2023-02-14T12:42:02.316Z,58.59
2023-02-14T12:45:05.939Z,58.61
2023-02-14T12:47:47.297Z,58.82
2023-02-14T12:51:02.993Z,58.55
2023-02-14T12:54:04.816Z,58.29
2023-02-14T12:57:10.315Z,58.48
2023-02-14T13:00:09.245Z,58.62
2023-02-14T13:02:55.336Z,58.70
2023-02-14T13:06:10.977Z,58.56
2023-02-14T13:09:00.763Z,58.78
2023-02-14T13:11:50.053Z,58.71
2023-02-14T13:14:30.245Z,58.70
2023-02-14T13:17:36.718Z,58.67
2023-02-14T13:20:19.267Z,58.57
2023-02-14T13:22:48.722Z,58.60
2023-02-14T13:25:34.309Z,58.92
2023-02-14T13:28:12.377Z,58.92
2023-02-14T13:30:42.517Z,58.72
2023-02-14T13:33:34.927Z,58.84
2023-02-14T13:36:10.406Z,58.84
2023-02-14T13:38:52.726Z,58.86
2023-02-14T13:41:21.944Z,58.60
2023-02-14T13:43:59.589Z,58.63
2023-02-14T13:46:33.650Z,58.37
2023-02-14T13:49:29.086Z,58.36
2023-02-14T13:52:05.775Z,58.68
2023-02-14T13:54:49.616Z,58.69
2023-02-14T13:57:40.618Z,58.27
2023-02-14T14:00:17.287Z,58.32
2023-02-14T14:02:46.538Z,58.43
2023-02-14T14:05:30.217Z,58.50
2023-02-14T14:08:19.884Z,58.48
2023-02-14T14:10:54.785Z,58.51
2023-02-14T14:13:41.601Z,58.67
2023-02-14T14:16:30.215Z,58.54
2023-02-14T14:19:16.656Z,58.52
2023-02-14T14:22:01.350Z,58.61
2023-02-14T14:24:32.320Z,58.76
2023-02-14T14:27:21.150Z,58.56
2023-02-14T14:29:55.860Z,58.49
2023-02-14T14:32:37.191Z,58.59
2023-02-14T14:35:10.534Z,58.63
2023-02-14T14:37:54.360Z,58.56
2023-02-14T14:40:31.448Z,58.65
2023-02-14T14:43:34.436Z,58.84
2023-02-14T14:46:04.302Z,58.82
2023-02-14T14:48:39.608Z,58.77
2023-02-14T14:51:16.552Z,58.90
2023-02-14T14:53:59.886Z,59.13
2023-02-14T14:56:46.465Z,59.02
2023-02-14T14:59:34.786Z,59.07
2023-02-14T15:02:21.063Z,59.07
2023-02-14T15:04:49.141Z,59.05
2023-02-14T15:07:33.332Z,59.16
2023-02-14T15:10:01.485Z,59.18
2023-02-14T15:12:48.365Z,59.07
2023-02-14T15:15:18.468Z,59.19
2023-02-14T15:17:48.057Z,59.28
2023-02-14T15:20:23.104Z,59.42
2023-02-14T15:22:53.057Z,59.53
2023-02-14T15:25:35.374Z,59.58
2023-02-14T15:28:03.364Z,59.74
2023-02-14T15:30:37.341Z,59.78
2023-02-14T15:33:07.177Z,59.78
2023-02-14T15:35:41.578Z,59.80
2023-02-14T15:38:11.873Z,59.77
2023-02-14T15:40:44.457Z,59.88
2023-02-14T15:43:31.920Z,60.02
2023-02-14T15:46:24.410Z,60.08
2023-02-14T15:48:53.110Z,60.14
2023-02-14T15:51:31.127Z,60.33
2023-02-14T15:53:59.989Z,60.53
2023-02-14T15:56:45.420Z,60.64
2023-02-14T15:59:25.591Z,60.69
2023-02-14T16:02:00.445Z,60.70
2023-02-14T16:04:34.309Z,60.60
2023-02-14T16:07:15.935Z,60.83
2023-02-14T16:09:44.006Z,60.88
2023-02-14T16:12:32.457Z,60.93
2023-02-14T16:15:23.984Z,60.86
2023-02-14T16:17:52.189Z,60.99
2023-02-14T16:20:48.668Z,60.95
2023-02-14T16:23:23.990Z,60.92
2023-02-14T16:25:53.030Z,61.08
2023-02-14T16:28:20.975Z,61.23
2023-02-14T16:30:58.335Z,61.23
2023-02-14T16:33:31.877Z,61.25
2023-02-14T16:36:25.681Z,61.31
2023-02-14T16:38:55.014Z,61.30
2023-02-14T16:41:26.692Z,61.41
2023-02-14T16:43:55.870Z,61.39
2023-02-14T16:46:35.549Z,61.54
2023-02-14T16:49:03.775Z,61.76
2023-02-14T16:51:35.449Z,61.72
2023-02-14T16:54:10.967Z,61.65
2023-02-14T16:57:04.398Z,61.76
2023-02-14T16:59:32.125Z,61.89
2023-02-14T17:02:00.629Z,61.88
2023-02-14T17:04:28.729Z,61.93
2023-02-14T17:06:57.560Z,61.97
2023-02-14T17:09:32.259Z,61.83
2023-02-14T17:12:11.546Z,61.99
2023-02-14T17:14:42.595Z,61.93
2023-02-14T17:17:11.591Z,61.95
2023-02-14T17:19:39.568Z,62.04
2023-02-14T17:22:08.102Z,62.11
2023-02-14T17:24:35.912Z,62.16
2023-02-14T17:27:04.286Z,62.18
2023-02-14T17:29:33.272Z,62.21
2023-02-14T17:32:01.648Z,62.29
2023-02-14T17:34:33.639Z,62.46
2023-02-14T17:37:02.378Z,62.42
2023-02-14T17:39:30.380Z,62.30
2023-02-14T17:42:00.808Z,62.24
2023-02-14T17:44:35.309Z,62.30
2023-02-14T17:47:04.746Z,62.37
2023-02-14T17:49:33.030Z,62.28
2023-02-14T17:52:04.169Z,62.24
2023-02-14T17:54:37.604Z,62.27
2023-02-14T17:57:05.643Z,62.51
2023-02-14T17:59:34.896Z,62.68
2023-02-14T18:02:03.260Z,63.02
2023-02-14T18:04:34.549Z,63.14
2023-02-14T18:07:04.619Z,63.01
2023-02-14T18:09:32.745Z,62.94
2023-02-14T18:12:01.034Z,62.91
2023-02-14T18:14:30.193Z,63.12
2023-02-14T18:16:58.405Z,63.14
2023-02-14T18:19:26.436Z,63.24
2023-02-14T18:21:54.408Z,63.32
2023-02-14T18:24:24.819Z,63.46
2023-02-14T18:26:53.019Z,63.47
2023-02-14T18:29:22.101Z,63.48
2023-02-14T18:31:50.156Z,63.47
2023-02-14T18:34:23.658Z,63.53
2023-02-14T18:36:52.304Z,63.51
2023-02-14T18:39:20.370Z,63.45
2023-02-14T18:41:48.534Z,63.44
2023-02-14T18:44:20.982Z,63.40
2023-02-14T18:46:50.676Z,63.57
2023-02-14T18:49:18.798Z,63.90
2023-02-14T18:51:48.363Z,63.95
2023-02-14T18:54:16.241Z,64.12
2023-02-14T18:56:44.134Z,64.25
2023-02-14T18:59:12.925Z,64.24
2023-02-14T19:01:45.079Z,64.31
2023-02-14T19:04:15.850Z,64.32
2023-02-14T19:06:44.653Z,64.44
2023-02-14T19:09:18.093Z,64.63
2023-02-14T19:11:46.255Z,64.66
2023-02-14T19:14:14.043Z,64.70
2023-02-14T19:16:50.043Z,64.71
2023-02-14T19:19:18.360Z,64.79
2023-02-14T19:21:46.142Z,64.88
2023-02-14T19:24:16.913Z,64.91
2023-02-14T19:26:45.751Z,65.02
2023-02-14T19:29:17.606Z,64.99
2023-02-14T19:31:49.657Z,65.07
2023-02-14T19:34:20.620Z,65.16
2023-02-14T19:36:51.404Z,65.39
2023-02-14T19:39:24.072Z,65.45
2023-02-14T19:41:52.379Z,65.55
2023-02-14T19:44:20.499Z,65.60
2023-02-14T19:46:48.630Z,65.47
2023-02-14T19:49:20.048Z,65.52
2023-02-14T19:51:50.689Z,65.70
2023-02-14T19:54:18.661Z,65.75
2023-02-14T19:56:50.441Z,65.72
2023-02-14T19:59:21.118Z,65.84
2023-02-14T20:01:53.628Z,65.92
2023-02-14T20:04:26.074Z,65.97
2023-02-14T20:06:55.692Z,65.89
2023-02-14T20:09:25.284Z,66.09
2023-02-14T20:11:56.708Z,66.10
2023-02-14T20:14:28.830Z,66.12
2023-02-14T20:16:59.510Z,66.12
2023-02-14T20:19:37.684Z,66.20
2023-02-14T20:22:07.551Z,66.14
2023-02-14T20:24:35.506Z,66.15
2023-02-14T20:27:03.501Z,66.21
2023-02-14T20:29:31.766Z,66.23
2023-02-14T20:32:03.215Z,66.38
2023-02-14T20:34:31.131Z,66.61
2023-02-14T20:36:59.789Z,66.79
2023-02-14T20:39:31.883Z,66.91
2023-02-14T20:42:00.580Z,66.88
2023-02-14T20:44:28.871Z,66.78
2023-02-14T20:46:57.988Z,66.81
2023-02-14T20:49:29.296Z,66.87
2023-02-14T20:51:57.944Z,67.06
2023-02-14T20:54:28.103Z,67.14
2023-02-14T20:56:57.363Z,67.23
2023-02-14T20:59:28.115Z,67.16
2023-02-14T21:01:58.380Z,67.31
2023-02-14T21:04:27.612Z,67.25
2023-02-14T21:06:57.192Z,67.29
2023-02-14T21:09:25.430Z,67.22
2023-02-14T21:11:53.796Z,67.20
2023-02-14T21:14:21.699Z,67.31
2023-02-14T21:16:49.663Z,67.47
2023-02-14T21:19:17.494Z,67.60
2023-02-14T21:21:47.408Z,67.73
2023-02-14T21:24:16.242Z,67.89
2023-02-14T21:26:44.586Z,67.98
2023-02-14T21:29:12.374Z,68.08
2023-02-14T21:31:41.754Z,68.15
2023-02-14T21:34:10.248Z,68.13
2023-02-14T21:36:38.037Z,68.26
2023-02-14T21:39:07.401Z,68.22
2023-02-14T21:41:36.800Z,68.51
2023-02-14T21:44:06.364Z,68.70
2023-02-14T21:46:40.490Z,68.66
2023-02-14T21:49:30.697Z,68.80
2023-02-14T21:51:58.745Z,68.99
2023-02-14T21:54:26.710Z,69.03
2023-02-14T21:56:54.440Z,69.02
2023-02-14T21:59:22.229Z,69.03
2023-02-14T22:01:49.977Z,69.04
2023-02-14T22:04:17.805Z,69.19
2023-02-14T22:06:46.034Z,69.42
2023-02-14T22:09:14.194Z,69.41
2023-02-14T22:11:42.462Z,69.24
2023-02-14T22:14:10.335Z,69.20
2023-02-14T22:16:38.366Z,69.13
2023-02-14T22:19:07.696Z,69.35
2023-02-14T22:21:35.664Z,69.55
2023-02-14T22:24:03.916Z,69.57
2023-02-14T22:26:38.102Z,69.55
2023-02-14T22:29:08.721Z,69.39
2023-02-14T22:31:43.806Z,69.34
2023-02-14T22:34:17.295Z,69.68
2023-02-14T22:36:46.223Z,69.76
2023-02-14T22:39:16.171Z,69.99
2023-02-14T22:41:44.144Z,69.98
2023-02-14T22:44:12.868Z,70.02
2023-02-14T22:46:41.446Z,70.00
2023-02-14T22:49:09.160Z,70.28
2023-02-14T22:51:40.371Z,70.36
2023-02-14T22:54:13.620Z,70.53
2023-02-14T22:56:47.810Z,70.63
2023-02-14T22:59:24.861Z,70.54
2023-02-14T23:01:53.997Z,70.52
2023-02-14T23:04:24.450Z,70.73
2023-02-14T23:06:53.417Z,70.89
2023-02-14T23:09:23.424Z,70.96
2023-02-14T23:11:51.515Z,70.98
2023-02-14T23:14:44.086Z,70.95
2023-02-14T23:17:23.805Z,71.18
2023-02-14T23:20:09.711Z,71.42
2023-02-14T23:22:40.489Z,71.72
2023-02-14T23:25:11.591Z,71.77
2023-02-14T23:27:43.791Z,71.80
2023-02-14T23:30:15.438Z,71.99
2023-02-14T23:32:43.665Z,72.22
2023-02-14T23:35:11.563Z,72.35
2023-02-14T23:37:39.407Z,72.48
2023-02-14T23:40:09.237Z,72.52
2023-02-14T23:42:36.955Z,72.55
2023-02-14T23:45:24.269Z,72.59
2023-02-14T23:47:52.047Z,72.69
2023-02-14T23:50:19.824Z,72.69
2023-02-14T23:52:47.582Z,72.73
2023-02-14T23:55:15.475Z,72.75
2023-02-14T23:57:43.285Z,72.58
